Date,TemperatureHighF,TemperatureAvgF,TemperatureLowF,DewpointHighF,DewpointAvgF,DewpointLowF,HumidityHigh,HumidityAvg,HumidityLow,PressureMaxIn,PressureMinIn,WindSpeedMaxMPH,WindSpeedAvgMPH,GustSpeedMaxMPH,PrecipitationSumIn
2012-1-1,77.9,59.4,45.2,59.6,49.6,42.7,94,73,36,30.24,30.10,0,0,0,0.00
2012-1-2,67.3,53.6,34.3,58.6,42.3,26.0,94,69,26,30.18,30.05,0,0,0,0.01
2012-1-3,49.4,38.2,25.3,38.1,17.4,5.5,90,49,20,30.37,30.14,0,0,0,0.00
2012-1-4,58.6,37.8,23.5,28.0,19.8,-99.9,85,55,18,30.41,30.26,0,0,0,0.00
2012-1-5,69.8,44.8,23.5,48.3,35.0,19.3,91,71,44,30.28,30.14,0,0,0,0.00
2012-1-6,72.8,52.5,37.3,56.6,43.6,33.4,95,74,43,30.20,30.07,0,0,0,0.00
2012-1-7,75.8,56.0,41.9,58.8,46.0,38.6,94,73,33,30.15,30.06,0,0,0,0.01
2012-1-8,77.7,58.3,41.1,55.4,46.3,38.4,93,69,33,30.20,30.10,0,0,0,0.00
2012-1-9,78.6,61.1,45.8,60.1,51.4,42.7,94,73,41,30.18,30.04,0,0,0,0.00
2012-1-10,78.8,63.1,49.9,61.5,52.6,47.1,93,71,43,30.07,29.90,0,0,0,0.00
2012-1-11,70.3,63.0,52.6,66.9,58.1,49.1,91,84,76,29.94,29.74,0,0,0,0.14
2012-1-12,77.4,61.5,49.4,62.3,54.2,46.6,95,79,49,29.91,29.80,0,0,0,0.01
2012-1-13,62.6,53.8,44.8,59.7,39.8,24.8,91,62,28,30.20,29.91,0,0,0,0.00
2012-1-14,56.9,44.0,31.0,38.3,27.9,17.8,82,57,22,30.33,30.18,0,0,0,0.00
2012-1-15,68.8,45.9,26.1,45.8,31.2,22.5,92,63,23,30.41,30.30,0,0,0,0.00
2012-1-16,72.3,52.9,33.5,50.0,41.4,29.3,92,67,44,30.42,30.28,0,0,0,0.00
2012-1-17,77.9,57.8,40.8,58.3,47.2,37.7,93,71,41,30.29,30.11,0,0,0,0.00
2012-1-18,73.0,59.6,45.5,61.1,54.2,42.2,93,83,60,30.11,29.93,0,0,0,0.27
2012-1-19,71.8,55.5,41.1,59.8,40.7,22.6,93,66,17,30.15,29.99,0,0,0,0.01
2012-1-20,77.4,57.4,39.1,53.9,44.5,36.1,95,67,29,30.16,30.06,0,0,0,0.00
2012-1-21,79.4,62.8,47.6,57.7,51.1,43.3,91,68,38,30.11,29.98,0,0,0,0.00
2012-1-22,79.0,60.3,43.6,62.3,48.4,36.5,93,69,22,30.10,30.02,0,0,0,0.00
2012-1-23,81.8,65.9,53.6,64.1,56.7,50.4,93,74,44,30.12,30.00,0,0,0,0.00
2012-1-24,82.8,67.3,53.2,65.0,56.6,50.1,94,71,38,30.14,30.04,0,0,0,0.00
2012-1-25,83.6,70.9,60.2,65.7,59.0,50.9,93,69,35,30.13,30.02,0,0,0,0.00
2012-1-26,84.0,70.1,57.5,66.0,59.2,52.8,93,71,42,30.06,29.91,0,0,0,0.00
2012-1-27,71.5,65.4,52.2,66.4,60.8,47.2,92,85,72,30.04,29.88,0,0,0,0.13
2012-1-28,73.2,58.4,47.1,55.3,49.1,44.0,94,74,42,30.16,30.03,0,0,0,0.00
2012-1-29,74.2,58.3,45.8,51.8,44.3,38.0,92,65,28,30.27,30.14,0,0,0,0.00
2012-1-30,74.7,59.0,43.5,47.5,44.0,39.3,87,62,31,30.34,30.23,0,0,0,0.00
2012-1-31,77.6,63.3,49.8,55.2,50.8,45.8,89,66,36,30.32,30.18,0,0,0,0.00
2012-2-1,79.8,63.9,49.8,59.7,52.2,45.5,93,68,41,30.23,30.08,0,0,0,0.00
2012-2-2,81.2,66.3,52.3,64.3,54.2,48.5,93,68,37,30.14,30.03,0,0,0,0.00
2012-2-3,75.4,66.9,57.8,63.4,58.5,53.5,92,76,58,30.19,30.10,0,0,0,0.00
2012-2-4,81.6,70.3,61.8,63.2,59.5,55.8,90,71,43,30.15,30.01,0,0,0,0.00
2012-2-5,82.2,71.2,61.0,66.9,62.2,57.4,92,75,51,30.04,29.93,0,0,0,0.00
2012-2-6,84.0,70.2,62.0,68.0,62.3,57.1,92,77,50,30.04,29.93,0,0,0,0.03
2012-2-7,69.1,66.3,62.1,64.1,62.3,58.5,93,87,77,30.04,29.96,0,0,0,0.01
2012-2-8,78.6,63.9,53.9,58.0,50.3,43.9,91,65,31,30.07,29.96,0,0,0,0.00
2012-2-9,72.1,60.2,48.5,53.8,50.4,43.6,90,72,49,30.13,30.03,0,0,0,0.00
2012-2-10,81.4,66.5,54.7,66.1,58.5,51.2,91,77,51,30.08,29.85,0,0,0,0.27
2012-2-11,67.3,56.9,46.5,60.2,47.2,27.0,92,71,46,30.11,29.82,0,0,0,0.03
2012-2-12,53.5,40.6,27.5,27.1,15.6,10.5,71,38,19,30.33,30.11,0,0,0,0.00
2012-2-13,67.3,46.1,25.3,40.5,31.1,19.3,87,60,32,30.26,30.06,0,0,0,0.00
2012-2-14,80.3,61.3,41.9,55.8,49.5,36.1,92,68,40,30.09,29.99,0,0,0,0.00
2012-2-15,83.4,66.6,51.1,60.6,54.6,48.3,93,68,40,30.15,30.05,0,0,0,0.00
2012-2-16,84.5,69.2,57.0,65.2,58.7,50.5,91,71,42,30.13,30.01,0,0,0,0.00
2012-2-17,76.0,66.7,59.6,68.3,63.4,55.1,93,89,74,30.04,29.95,0,0,0,0.27
2012-2-18,76.5,67.9,62.1,67.1,63.0,57.9,95,85,68,29.98,29.84,0,0,0,0.01
2012-2-19,82.4,69.6,61.0,70.8,62.9,52.9,94,80,64,29.89,29.76,0,0,0,0.01
2012-2-20,71.5,60.5,51.1,53.1,47.4,42.8,88,64,36,30.18,29.89,0,0,0,0.00
2012-2-21,78.5,62.3,47.3,55.6,50.2,44.5,93,68,39,30.20,30.06,0,0,0,0.00
2012-2-22,79.4,66.1,53.8,64.5,59.0,49.8,93,79,56,30.07,29.86,0,0,0,0.14
2012-2-23,84.0,72.8,66.3,69.9,66.0,62.2,94,81,53,29.93,29.84,0,0,0,0.00
2012-2-24,87.4,74.5,66.3,69.1,64.2,59.0,94,73,40,29.96,29.88,0,0,0,0.01
2012-2-25,71.8,64.7,56.2,66.7,44.5,31.0,91,52,26,30.21,29.94,0,0,0,0.00
2012-2-26,69.8,61.9,52.2,61.5,50.9,36.6,84,68,48,30.27,30.18,0,0,0,0.01
2012-2-27,82.4,71.0,63.5,69.5,64.5,60.5,92,81,53,30.25,30.14,0,0,0,0.15
2012-2-28,82.2,70.4,63.7,69.2,63.8,58.7,95,81,54,30.24,30.13,0,0,0,0.01
2012-2-29,86.1,72.0,59.9,68.4,62.4,56.0,95,74,42,30.19,30.02,0,0,0,0.00
2012-3-1,86.5,71.6,59.8,69.3,61.4,55.3,94,73,44,30.07,29.94,0,0,0,0.01
2012-3-2,87.4,71.5,58.0,68.9,61.9,53.5,94,74,41,30.01,29.89,0,0,0,0.01
2012-3-3,89.0,75.4,62.1,70.7,64.0,54.8,94,71,33,29.90,29.74,0,0,0,0.01
2012-3-4,75.8,60.6,37.8,70.1,43.4,23.9,89,59,21,30.18,29.63,0,0,0,0.21
2012-3-5,76.5,54.9,32.7,45.4,33.8,28.3,91,53,18,30.32,30.18,0,0,0,0.00
2012-3-6,78.1,59.4,40.2,54.4,47.5,36.9,92,68,41,30.36,30.27,0,0,0,0.00
2012-3-7,81.2,67.1,53.5,60.1,55.0,48.2,89,68,34,30.35,30.23,0,0,0,0.00
2012-3-8,85.7,71.5,56.9,65.7,60.9,54.3,93,72,39,30.25,30.09,0,0,0,0.00
2012-3-9,86.1,73.1,60.4,67.4,63.5,56.2,92,74,44,30.16,30.02,0,0,0,0.00
2012-3-10,82.2,70.4,64.5,65.7,63.1,61.3,92,79,51,30.18,30.05,0,0,0,0.00
2012-3-11,78.8,68.2,65.2,68.5,64.3,61.3,92,88,66,30.24,30.14,0,0,0,0.33
2012-3-12,80.5,70.0,60.9,63.2,59.8,56.2,92,72,46,30.24,30.15,0,0,0,0.00
2012-3-13,83.0,69.7,54.5,62.9,57.8,50.9,92,68,41,30.22,30.10,0,0,0,0.00
2012-3-14,85.1,70.0,53.6,63.1,57.2,49.8,92,67,40,30.19,30.08,0,0,0,0.00
2012-3-15,85.7,70.3,55.6,65.7,58.7,51.9,93,69,35,30.21,30.09,0,0,0,0.00
2012-3-16,85.3,71.3,56.0,66.2,57.8,50.3,93,66,32,30.19,30.07,0,0,0,0.00
2012-3-17,84.5,70.8,55.0,64.4,56.3,50.7,92,64,32,30.19,30.07,0,0,0,0.00
2012-3-18,84.7,69.1,51.0,64.4,54.1,47.6,93,63,30,30.21,30.08,0,0,0,0.00
2012-3-19,84.7,70.1,54.7,64.2,56.4,50.6,92,65,37,30.14,30.01,0,0,0,0.00
2012-3-20,85.5,71.9,57.5,63.5,58.6,52.1,91,66,34,30.07,29.96,0,0,0,0.00
2012-3-21,85.1,72.8,59.8,67.3,62.7,56.5,92,72,48,30.10,29.98,0,0,0,0.00
2012-3-22,87.4,76.2,66.4,67.9,63.4,57.0,91,67,36,30.11,29.98,0,0,0,0.00
2012-3-23,86.7,75.6,65.2,67.8,62.8,55.8,91,67,36,30.08,29.93,0,0,0,0.00
2012-3-24,86.1,72.7,60.1,68.5,62.3,56.6,93,72,47,29.99,29.85,0,0,0,0.00
2012-3-25,84.5,73.1,58.3,68.6,57.9,44.9,91,64,27,29.89,29.77,0,0,0,0.02
2012-3-26,84.9,67.5,48.2,60.0,49.1,44.0,93,58,26,29.98,29.85,0,0,0,0.00
2012-3-27,85.5,68.7,48.8,62.3,51.1,43.3,92,59,24,30.14,29.97,0,0,0,0.00
2012-3-28,85.1,71.6,56.5,63.4,55.7,47.5,92,61,28,30.14,29.99,0,0,0,0.00
2012-3-29,87.0,73.3,61.8,64.1,59.0,52.6,91,64,35,30.03,29.90,0,0,0,0.00
2012-3-30,87.6,72.0,56.3,64.7,57.6,52.7,93,64,33,30.01,29.90,0,0,0,0.00
2012-3-31,85.9,70.9,61.0,68.1,63.0,55.5,91,77,50,29.94,29.81,0,0,0,0.13
2012-4-1,87.4,71.7,57.2,68.0,60.0,54.2,93,70,39,29.90,29.80,0,0,0,0.00
2012-4-2,89.9,71.9,57.8,69.9,59.8,53.3,95,70,33,29.89,29.80,0,0,0,0.01
2012-4-3,92.7,74.1,57.6,68.5,58.3,47.6,94,64,23,29.93,29.83,0,0,0,0.00
2012-4-4,91.2,74.3,57.6,67.8,58.6,49.8,94,63,27,29.93,29.76,0,0,0,0.00
2012-4-5,86.7,74.3,65.8,67.5,63.5,59.7,91,71,44,29.82,29.70,0,0,0,0.02
2012-4-6,85.3,72.3,61.6,69.2,58.0,45.7,93,65,28,29.92,29.68,0,0,0,0.00
2012-4-7,81.4,68.8,57.0,56.5,52.5,48.7,84,59,32,30.11,29.93,0,0,0,0.00
2012-4-8,82.2,72.8,51.9,55.5,51.0,46.5,86,49,31,30.15,30.01,0,0,0,0.00
2012-4-9,76.8,58.7,51.6,60.7,51.1,46.8,93,77,54,30.06,30.01,0,0,0,0.00
2012-4-10,86.5,69.9,52.8,61.3,53.5,48.7,92,61,29,30.02,29.90,0,0,0,0.00
2012-4-11,88.2,70.6,54.2,64.6,53.6,44.2,93,60,25,30.02,29.90,0,0,0,0.00
2012-4-12,86.1,71.7,56.5,58.7,49.6,39.0,87,52,19,30.02,29.94,0,0,0,0.00
2012-4-13,87.2,72.3,58.0,63.9,56.0,47.6,91,61,28,30.09,29.96,0,0,0,0.00
2012-4-14,79.6,70.8,62.9,63.7,60.9,57.6,91,72,50,30.19,30.06,0,0,0,0.00
2012-4-15,82.6,73.8,63.9,60.3,57.7,53.9,81,59,39,30.18,30.10,0,0,0,0.00
2012-4-16,84.7,73.8,61.6,64.6,58.9,49.8,88,62,31,30.16,30.06,0,0,0,0.00
2012-4-17,85.3,73.1,56.2,63.6,56.7,52.4,92,60,34,30.11,29.98,0,0,0,0.00
2012-4-18,87.8,75.1,61.3,64.6,58.9,49.2,89,60,29,30.05,29.89,0,0,0,0.00
2012-4-19,84.3,73.0,62.7,69.4,64.4,58.1,91,76,51,29.94,29.82,0,0,0,0.01
2012-4-20,89.3,71.7,62.0,70.6,63.5,58.7,93,78,40,29.88,29.76,0,0,0,0.85
2012-4-21,82.4,69.9,65.0,67.9,64.5,61.9,93,84,55,29.82,29.56,0,0,0,0.04
2012-4-22,81.6,68.2,58.9,66.7,60.4,53.4,94,78,50,29.70,29.48,0,0,0,1.26
2012-4-23,73.7,60.7,45.8,53.2,45.2,37.8,90,61,31,29.86,29.70,0,0,0,0.00
2012-4-24,73.3,56.8,38.9,43.4,36.4,26.4,89,54,21,30.00,29.86,0,0,0,0.00
2012-4-25,82.4,61.0,39.8,53.5,43.7,35.4,92,59,26,30.08,29.98,0,0,0,0.00
2012-4-26,85.9,68.9,48.9,62.1,54.1,45.4,93,63,32,30.10,29.98,0,0,0,0.00
2012-4-27,88.6,71.0,52.8,65.5,54.5,43.7,93,62,22,30.08,29.96,0,0,0,0.00
2012-4-28,89.0,74.7,58.0,69.5,62.8,54.6,92,69,42,30.05,29.95,0,0,0,0.05
2012-4-29,86.7,76.1,63.7,70.8,65.2,59.3,92,71,40,30.05,29.97,0,0,0,0.01
2012-4-30,87.0,75.9,64.5,71.2,64.4,59.9,92,70,43,30.05,29.97,0,0,0,0.00
2012-5-1,88.0,77.3,68.3,69.6,65.1,59.7,91,68,41,30.04,29.93,0,0,0,0.00
2012-5-2,89.9,78.3,67.6,70.5,65.4,60.9,92,67,41,30.05,29.95,0,0,0,0.00
2012-5-3,90.5,78.3,67.3,69.7,64.9,55.3,91,67,33,30.06,29.96,0,0,0,0.00
2012-5-4,87.6,77.4,66.9,70.5,65.1,59.0,92,68,40,30.05,29.93,0,0,0,0.00
2012-5-5,91.8,78.5,63.7,70.4,64.1,58.3,91,64,34,29.97,29.85,0,0,0,0.00
2012-5-6,91.6,77.7,64.3,72.3,64.3,58.8,92,67,35,29.93,29.82,0,0,0,0.00
2012-5-7,91.2,74.8,63.5,70.3,63.7,59.6,92,72,37,29.88,29.77,0,0,0,0.42
2012-5-8,90.7,73.7,61.3,72.3,64.4,56.9,94,76,33,29.87,29.76,0,0,0,0.22
2012-5-9,88.0,74.7,63.9,74.3,67.2,61.2,94,79,53,29.85,29.72,0,0,0,0.06
2012-5-10,88.2,76.2,65.6,68.9,62.9,53.5,93,67,33,29.88,29.73,0,0,0,0.01
2012-5-11,88.0,74.4,58.9,67.7,59.7,55.0,93,63,38,30.08,29.86,0,0,0,0.00
2012-5-12,70.4,68.2,66.0,59.9,58.8,57.8,77,72,65,30.08,30.05,0,0,0,0.00
2012-5-13,84.0,74.7,60.4,67.1,62.9,55.6,90,68,48,30.09,29.96,0,0,0,0.00
2012-5-14,89.0,76.1,70.6,70.0,67.1,62.6,89,75,43,30.01,29.88,0,0,0,0.23
2012-5-15,92.7,77.0,66.9,70.5,66.5,60.7,93,74,35,29.98,29.85,0,0,0,0.24
2012-5-16,79.4,72.4,67.1,71.8,67.9,64.4,93,86,71,29.97,29.88,0,0,0,0.66
2012-5-17,87.8,76.6,68.6,71.1,66.4,61.6,94,73,46,29.91,29.79,0,0,0,0.02
2012-5-18,89.5,74.6,61.2,70.6,64.6,57.9,92,73,40,29.90,29.81,0,0,0,0.01
2012-5-19,88.2,76.9,66.4,70.0,65.0,56.6,93,70,36,29.96,29.83,0,0,0,0.01
2012-5-20,89.0,75.8,65.2,67.5,58.0,37.4,91,60,19,29.96,29.85,0,0,0,0.00
2012-5-21,90.3,75.6,56.6,66.7,55.4,48.1,92,55,24,29.95,29.84,0,0,0,0.00
2012-5-22,92.9,76.5,59.2,68.4,57.9,44.1,92,59,20,29.92,29.79,0,0,0,0.00
2012-5-23,92.3,78.8,61.0,71.3,61.1,50.4,93,60,26,29.88,29.76,0,0,0,0.00
2012-5-24,93.8,79.8,68.1,73.5,68.4,63.3,92,70,44,29.87,29.79,0,0,0,0.00
2012-5-25,94.7,80.9,67.4,73.2,66.7,57.6,92,65,35,30.00,29.86,0,0,0,0.00
2012-5-26,93.8,79.5,62.4,70.9,62.8,56.4,92,61,29,30.02,29.88,0,0,0,0.00
2012-5-27,94.5,78.1,66.9,75.7,67.2,61.1,90,72,35,29.94,29.74,0,0,0,0.23
2012-5-28,85.7,78.1,71.5,76.2,70.9,66.1,92,79,60,29.86,29.76,0,0,0,0.22
2012-5-29,82.8,75.5,72.5,74.8,71.1,67.5,91,86,69,29.90,29.80,0,0,0,0.31
2012-5-30,91.2,80.3,71.3,77.1,71.8,68.7,94,77,52,29.85,29.75,0,0,0,0.09
2012-5-31,89.9,79.6,69.8,75.5,69.4,63.3,94,73,47,29.88,29.79,0,0,0,0.00
2012-6-1,76.8,73.6,70.8,72.2,70.3,68.7,93,90,81,29.91,29.79,0,0,0,1.80
2012-6-2,90.5,78.9,69.9,74.5,25.5,-99.9,95,61,54,29.93,29.82,0,0,0,0.01
2012-6-3,91.6,77.9,63.1,71.2,64.3,60.1,93,66,40,30.00,29.90,0,0,0,0.00
2012-6-4,89.3,77.6,63.2,73.8,67.0,60.1,93,72,50,29.94,29.79,0,0,0,0.00
2012-6-5,86.7,75.9,70.3,74.8,70.7,67.2,93,84,63,29.83,29.74,0,0,0,0.71
2012-6-6,85.9,74.9,70.4,76.9,70.6,66.7,93,87,60,29.88,29.78,0,0,0,0.37
2012-6-7,81.1,74.4,71.5,75.6,71.3,69.1,94,90,78,29.92,29.85,0,0,0,1.88
2012-6-8,86.3,75.5,70.3,71.0,-44.8,-99.9,95,31,94,29.95,29.84,0,0,0,0.46
2012-6-9,90.1,78.0,70.6,73.0,-67.0,-99.9,93,17,76,29.99,29.85,0,0,0,0.18
2012-6-10,92.5,80.6,73.2,74.6,-5.5,-99.9,94,49,53,30.08,29.93,0,0,0,0.14
2012-6-11,92.9,80.2,67.6,74.4,35.8,-99.9,93,63,49,30.08,29.98,0,0,0,0.57
2012-6-12,92.7,78.4,68.3,75.7,70.4,65.6,93,78,50,30.05,29.88,0,0,1,0.70
2012-6-13,92.1,80.2,67.9,77.0,70.2,65.2,94,74,48,29.94,29.80,0,0,0,0.01
2012-6-14,92.3,77.3,68.4,75.4,69.4,65.4,91,78,49,29.96,29.83,0,0,0,2.01
2012-6-15,88.4,76.4,66.0,73.7,68.4,63.6,94,78,56,30.00,29.90,0,0,0,0.03
2012-6-16,89.0,79.1,70.4,72.1,66.2,59.7,92,67,40,30.00,29.94,0,0,0,0.00
2012-6-17,87.8,77.5,66.9,71.4,65.1,61.3,92,68,44,30.02,29.89,0,0,0,0.00
2012-6-18,88.6,77.2,63.7,70.7,63.2,59.7,92,65,39,30.00,29.92,0,0,0,0.00
2012-6-19,87.4,77.1,66.9,69.2,64.4,58.8,91,67,40,30.02,29.96,0,0,0,0.00
2012-6-20,84.7,74.8,68.3,75.8,69.8,61.2,93,85,68,30.00,29.92,0,0,0,0.57
2012-6-21,89.3,78.7,73.7,75.9,72.8,71.5,94,83,58,29.94,29.82,0,0,0,0.06
2012-6-22,88.0,77.9,72.7,75.5,72.6,70.2,94,85,60,29.88,29.79,0,0,0,1.42
2012-6-23,81.2,76.9,72.8,75.7,73.2,70.3,95,89,77,29.91,29.80,0,0,0,0.07
2012-6-24,77.7,75.2,73.7,75.3,73.2,71.5,95,94,92,29.89,29.67,0,0,0,3.47
2012-6-25,83.4,76.8,74.6,74.9,-7.2,-99.9,94,49,88,29.69,29.59,0,0,0,2.32
2012-6-26,82.8,79.0,76.0,75.8,-99.3,-99.9,91,0,91,29.60,29.53,0,0,0,0.56
2012-6-27,88.0,78.3,71.5,73.4,-19.1,-99.9,94,41,71,29.96,29.57,0,0,0,0.14
2012-6-28,89.7,78.8,66.9,70.2,65.6,59.4,92,67,42,30.03,29.95,0,0,0,0.00
2012-6-29,91.0,78.6,66.3,74.2,67.8,63.6,93,72,46,30.01,29.88,0,0,0,0.00
2012-6-30,90.3,78.5,66.8,73.5,67.0,57.8,93,71,37,29.97,29.88,0,0,0,0.00
2012-7-1,92.5,79.5,66.3,76.4,69.1,63.3,94,73,49,30.03,29.92,0,0,0,0.00
2012-7-2,92.9,81.2,70.3,76.6,70.9,66.7,93,73,47,30.04,29.93,0,0,0,0.00
2012-7-3,76.7,72.2,69.6,70.9,66.9,65.2,92,84,76,30.02,29.96,0,0,0,0.00
2012-7-4,93.4,78.7,71.5,75.9,71.1,68.7,93,79,47,30.03,29.96,0,0,0,0.12
2012-7-5,92.7,79.9,69.6,77.3,71.2,66.6,93,77,43,30.02,29.90,0,0,0,0.79
2012-7-6,93.6,79.3,70.6,75.2,71.6,67.8,93,79,49,30.02,29.93,0,0,0,0.29
2012-7-7,93.4,82.7,71.3,75.8,70.1,62.3,93,69,38,30.03,29.96,0,0,0,0.00
2012-7-8,95.1,84.0,72.5,75.9,70.7,65.3,91,66,39,30.04,29.93,0,0,0,0.00
2012-7-9,94.0,80.1,73.0,76.7,72.3,68.2,92,78,45,29.99,29.90,0,0,0,0.11
2012-7-10,92.3,77.8,71.6,76.2,71.1,68.5,92,81,49,30.01,29.91,0,0,0,0.72
2012-7-11,87.4,75.4,69.6,75.5,71.1,67.5,94,87,62,30.00,29.91,0,0,0,0.52
2012-7-12,89.3,79.0,70.3,75.2,71.6,68.2,94,80,54,29.98,29.88,0,0,0,0.08
2012-7-13,90.7,81.1,74.4,74.6,72.5,70.5,93,77,56,30.02,29.91,0,0,0,0.01
2012-7-14,90.3,80.5,74.0,78.1,72.9,70.5,91,79,55,30.05,29.96,0,0,0,0.30
2012-7-15,89.3,77.9,73.0,75.3,71.7,69.6,92,82,56,30.06,29.98,0,0,0,0.22
2012-7-16,85.7,77.2,69.6,76.3,72.2,67.5,94,85,66,30.03,29.90,0,0,0,0.74
2012-7-17,85.5,75.8,71.1,75.9,71.5,68.3,94,87,69,29.99,29.91,0,0,0,0.50
2012-7-18,87.2,76.7,72.1,76.5,72.1,69.5,93,86,69,30.08,29.94,0,0,0,0.18
2012-7-19,93.6,81.8,72.1,77.9,72.9,69.4,93,76,50,30.11,30.03,0,0,0,0.00
2012-7-20,94.0,82.6,72.3,77.8,71.9,64.1,93,73,40,30.07,29.97,0,0,0,0.00
2012-7-21,93.8,82.3,73.3,76.8,72.0,68.1,93,73,48,30.06,29.96,0,0,0,0.00
2012-7-22,76.5,38.8,73.7,72.9,-12.1,-99.9,90,45,81,30.10,30.00,0,-426,0,0.00
2012-7-23,88.0,76.6,72.1,76.8,72.2,69.0,94,87,66,30.11,30.04,0,0,0,1.00
2012-7-24,90.7,79.6,71.8,78.6,72.6,69.8,94,80,60,30.09,29.97,0,0,0,0.00
2012-7-25,92.1,81.7,73.2,80.2,73.3,69.7,93,77,52,29.99,29.92,0,0,0,0.19
2012-7-26,92.5,82.4,73.9,76.8,72.8,69.7,93,75,49,29.98,29.91,0,0,0,0.00
2012-7-27,94.0,80.9,71.5,78.1,72.1,68.8,93,77,49,30.03,29.93,0,0,0,0.10
2012-7-28,93.2,81.7,71.6,77.7,72.8,69.2,94,76,47,30.05,29.96,0,0,0,0.01
2012-7-29,92.9,82.0,72.7,77.4,72.0,67.7,93,74,47,30.02,29.92,0,0,0,0.00
2012-7-30,91.0,79.5,72.7,77.1,71.8,68.7,93,78,56,29.99,29.94,0,0,0,0.00
2012-7-31,91.4,79.2,71.6,77.7,72.5,68.5,92,81,51,29.99,29.91,0,0,0,0.07
2012-8-1,89.9,78.2,72.0,77.3,72.7,68.7,93,84,63,29.97,29.88,0,0,0,0.36
2012-8-2,92.1,81.4,73.2,77.5,73.2,70.3,93,78,52,29.95,29.86,0,0,0,0.01
2012-8-3,92.1,77.0,71.3,76.1,71.1,68.3,92,83,52,29.99,29.88,0,0,0,1.07
2012-8-4,92.5,79.8,69.3,76.4,71.5,67.2,94,78,47,30.00,29.91,0,0,0,0.00
2012-8-5,93.4,80.8,75.3,76.6,73.0,71.0,89,78,51,30.05,29.95,0,0,0,0.00
2012-8-6,91.4,80.1,73.9,77.9,73.4,70.2,92,81,59,30.04,29.90,0,0,0,0.31
2012-8-7,91.6,81.1,73.0,77.7,73.5,70.5,94,79,56,29.99,29.91,0,0,0,0.01
2012-8-8,93.4,81.7,73.0,78.0,72.3,68.2,92,75,49,30.00,29.91,0,0,0,0.00
2012-8-9,94.3,82.5,70.9,75.8,70.9,67.2,91,70,47,29.98,29.85,0,0,0,0.00
2012-8-10,92.1,81.1,73.2,76.8,72.6,69.7,92,77,55,29.95,29.86,0,0,0,0.05
2012-8-11,92.1,80.0,73.3,76.3,72.2,70.2,92,78,52,29.98,29.87,0,0,0,0.62
2012-8-12,89.7,77.1,70.8,78.4,72.4,68.4,94,86,54,29.99,29.92,0,0,0,0.84
2012-8-13,90.3,80.3,71.8,77.5,73.4,69.7,94,81,61,30.02,29.94,0,0,0,0.00
2012-8-14,92.5,79.4,72.5,77.2,72.4,69.7,93,81,53,30.00,29.92,0,0,0,0.06
2012-8-15,92.9,80.9,70.4,77.1,72.1,68.0,93,76,51,30.00,29.91,0,0,0,0.00
2012-8-16,93.6,81.7,72.0,77.3,72.5,68.9,92,75,50,30.02,29.93,0,0,0,0.00
2012-8-17,90.1,78.9,73.2,78.4,73.5,69.7,92,84,61,29.99,29.88,0,0,0,0.35
2012-8-18,82.2,76.5,72.8,77.4,72.7,69.6,94,88,77,29.97,29.85,0,0,0,0.35
2012-8-19,91.0,80.6,73.9,79.4,73.8,70.2,93,81,56,29.95,29.85,0,0,0,0.17
2012-8-20,93.6,81.6,73.0,77.8,73.1,70.1,93,77,49,29.97,29.83,0,0,0,0.12
2012-8-21,92.7,76.9,71.6,76.9,71.6,67.6,94,85,55,30.05,29.90,0,0,0,0.40
2012-8-22,86.7,74.1,70.6,76.1,70.5,67.9,95,89,66,30.05,29.94,0,0,0,0.82
2012-8-23,90.1,78.8,70.1,75.1,70.8,68.0,95,78,54,30.05,29.97,0,0,0,0.00
2012-8-24,91.6,79.9,70.6,76.5,70.4,67.1,92,75,46,30.01,29.89,0,0,0,0.00
2012-8-25,90.3,78.5,71.8,75.5,70.8,68.2,93,78,53,29.98,29.90,0,0,0,0.41
2012-8-26,83.4,77.4,73.7,76.5,73.6,69.1,93,89,75,29.95,29.78,0,0,0,0.55
2012-8-27,85.1,78.3,74.9,77.2,74.8,72.7,94,89,76,29.83,29.70,0,0,0,2.08
2012-8-28,90.3,81.3,76.5,80.1,75.6,73.0,90,83,68,29.93,29.82,0,0,0,0.32
2012-8-29,90.1,80.2,74.4,77.2,73.6,71.3,93,81,60,29.94,29.85,0,0,0,0.03
2012-8-30,91.4,81.3,73.0,77.7,73.1,69.7,94,78,52,30.06,29.90,0,0,0,0.77
2012-8-31,91.6,81.6,73.3,77.9,73.2,70.3,94,77,51,30.13,30.03,0,0,0,0.01
2012-9-1,92.3,82.0,74.4,76.9,71.5,67.2,93,73,47,30.11,29.99,0,0,0,0.00
2012-9-2,90.7,79.4,68.3,73.5,68.2,64.0,93,71,45,30.04,29.93,0,0,0,0.01
2012-9-3,90.7,79.1,66.8,73.2,68.2,62.3,94,72,42,30.01,29.91,0,0,0,0.00
2012-9-4,92.3,80.6,70.3,74.1,69.5,61.9,93,72,38,29.97,29.87,0,0,0,0.00
2012-9-5,91.0,80.0,70.3,74.5,70.7,67.5,93,75,50,29.94,29.85,0,0,0,0.00
2012-9-6,90.3,77.3,70.4,75.9,71.1,67.0,92,82,56,29.97,29.88,0,0,0,0.92
2012-9-7,90.1,78.1,70.3,77.7,71.8,67.5,93,82,55,29.95,29.85,0,0,0,0.45
2012-9-8,91.6,80.4,70.8,76.2,71.5,68.2,94,76,47,29.91,29.81,0,0,0,0.01
2012-9-9,80.3,76.9,73.9,77.2,74.2,71.7,94,91,85,29.91,29.81,0,0,0,1.08
2012-9-10,88.6,78.0,72.8,76.8,73.2,70.5,94,86,63,29.97,29.87,0,0,0,0.76
2012-9-11,86.3,77.4,70.3,75.0,70.5,64.7,94,80,60,30.08,29.96,0,0,0,0.11
2012-9-12,85.3,76.8,69.1,73.7,68.8,64.5,91,77,60,30.08,30.00,0,0,0,0.01
2012-9-13,88.6,78.5,71.1,74.2,70.0,66.2,92,76,51,30.05,29.96,0,0,0,0.00
2012-9-14,87.2,78.7,72.7,74.4,71.2,68.7,92,79,61,30.02,29.93,0,0,0,0.00
2012-9-15,88.2,78.2,72.5,74.1,71.2,69.9,92,80,57,30.02,29.94,0,0,0,0.00
2012-9-16,89.7,77.7,71.8,74.5,71.1,68.6,93,81,55,30.01,29.92,0,0,0,0.02
2012-9-17,91.0,77.9,70.8,76.6,70.9,67.7,93,80,52,29.97,29.84,0,0,0,0.11
2012-9-18,85.1,75.6,73.7,77.1,72.5,70.4,93,90,73,29.90,29.82,0,0,0,1.34
2012-9-19,89.7,77.7,72.3,77.2,73.1,67.4,95,87,57,29.99,29.86,0,0,0,0.61
2012-9-20,86.7,78.2,73.0,75.2,72.5,68.7,94,83,64,29.99,29.88,0,0,0,1.13
2012-9-21,87.6,76.4,71.6,75.2,70.9,67.9,94,84,61,29.97,29.85,0,0,0,0.12
2012-9-22,87.8,77.5,70.6,73.7,70.3,68.1,94,80,57,29.99,29.89,0,0,0,0.01
2012-9-23,90.3,78.2,67.8,74.1,68.2,63.4,94,74,43,30.02,29.94,0,0,0,0.00
2012-9-24,84.0,74.0,66.6,67.7,61.6,51.4,89,68,36,30.05,29.97,0,0,0,0.00
2012-9-25,84.9,72.8,62.0,69.8,64.3,59.1,94,76,50,30.05,29.98,0,0,0,0.00
2012-9-26,88.6,75.7,67.1,73.3,69.2,63.7,94,82,53,30.05,29.98,0,0,0,0.96
2012-9-27,89.9,78.2,68.4,74.7,69.3,66.3,95,76,48,30.07,29.95,0,0,0,0.01
2012-9-28,90.7,77.1,69.1,75.5,69.8,65.9,94,80,50,30.01,29.88,0,0,0,0.02
2012-9-29,89.7,79.4,69.6,75.2,70.5,66.9,93,76,49,29.95,29.79,0,0,0,0.06
2012-9-30,90.7,79.0,71.8,76.2,71.7,69.2,93,80,55,29.85,29.72,0,0,0,0.00
2012-10-1,88.0,79.2,72.5,76.5,72.3,69.4,93,80,61,29.77,29.66,0,0,0,0.04
2012-10-2,85.5,78.3,74.2,77.1,73.3,70.6,92,85,67,29.98,29.75,0,0,0,0.30
2012-10-3,89.0,76.7,73.3,76.7,72.7,70.8,93,88,64,30.11,29.96,0,0,0,0.11
2012-10-4,91.2,77.4,70.8,77.1,71.7,68.3,95,84,56,30.13,30.00,0,0,0,0.54
2012-10-5,89.0,77.4,70.3,76.2,71.5,67.9,94,83,60,30.08,29.89,0,0,0,0.03
2012-10-6,87.4,78.0,71.1,76.3,71.7,68.3,94,82,60,29.94,29.80,0,0,0,0.00
2012-10-7,87.6,77.0,69.1,75.2,69.8,66.4,94,80,56,29.94,29.85,0,0,0,0.01
2012-10-8,86.7,75.0,69.6,76.0,70.0,66.7,93,85,64,29.98,29.87,0,0,0,0.47
2012-10-9,84.7,74.9,67.3,74.6,69.8,65.5,94,85,66,30.00,29.92,0,0,0,0.01
2012-10-10,85.9,74.3,65.3,70.9,65.8,61.2,93,77,49,30.06,29.97,0,0,0,0.00
2012-10-11,84.7,72.8,62.0,67.7,63.6,59.6,94,75,47,30.11,30.04,0,0,0,0.01
2012-10-12,85.3,73.3,63.1,69.6,61.6,55.7,92,69,39,30.13,30.04,0,0,0,0.00
2012-10-13,85.3,73.1,62.4,66.9,62.4,57.2,92,71,49,30.13,30.04,0,0,0,0.00
2012-10-14,88.2,76.8,65.6,70.1,66.3,61.6,92,72,48,30.07,29.93,0,0,0,0.00
2012-10-15,87.2,75.8,67.4,74.3,68.1,64.0,93,78,49,29.94,29.76,0,0,0,0.00
2012-10-16,84.7,72.7,62.9,68.7,64.3,60.2,94,77,52,29.83,29.74,0,0,0,0.00
2012-10-17,79.8,71.2,63.4,71.8,65.8,59.5,93,84,73,29.84,29.76,0,0,0,0.00
2012-10-18,88.8,75.4,66.0,73.2,67.0,63.3,94,77,50,29.85,29.74,0,0,0,0.01
2012-10-19,87.8,73.9,61.0,72.6,65.6,58.4,94,77,50,29.83,29.75,0,0,0,0.00
2012-10-20,82.8,71.6,55.0,69.0,58.1,48.1,91,66,34,29.92,29.80,0,0,0,0.00
2012-10-21,82.2,65.6,51.3,58.7,52.2,45.9,94,67,31,30.02,29.91,0,0,0,0.00
2012-10-22,85.1,71.1,60.5,64.5,60.0,56.7,91,70,42,30.04,29.93,0,0,0,0.00
2012-10-23,84.3,71.9,61.3,66.6,61.8,58.0,92,72,51,30.02,29.91,0,0,0,0.01
2012-10-24,87.2,74.5,63.2,70.0,64.8,57.9,91,74,46,29.97,29.85,0,0,0,0.01
2012-10-25,84.9,74.2,69.1,71.8,68.1,65.6,91,82,55,29.89,29.75,0,0,0,0.05
2012-10-26,85.3,76.0,70.9,68.7,65.3,57.9,92,72,41,29.76,29.57,0,0,0,0.00
2012-10-27,75.1,70.0,65.0,62.6,60.4,57.4,83,72,61,29.66,29.53,0,0,0,0.00
2012-10-28,75.1,66.5,59.9,63.6,58.6,49.7,91,77,61,29.76,29.65,0,0,0,0.00
2012-10-29,68.1,56.8,45.2,50.0,42.8,35.4,80,61,33,29.84,29.72,0,0,0,0.00
2012-10-30,67.3,53.3,37.5,44.9,39.4,32.8,88,63,33,29.90,29.79,0,0,0,0.00
2012-10-31,72.1,56.9,44.9,49.3,44.9,39.6,93,68,40,30.01,29.90,0,0,0,0.00
2012-11-1,77.7,62.7,49.9,62.7,54.9,45.9,94,77,54,29.99,29.89,0,0,0,0.00
2012-11-2,78.3,60.3,45.2,59.7,47.1,42.4,94,67,31,30.05,29.96,0,0,0,0.01
2012-11-3,82.8,63.8,47.9,66.1,54.4,44.0,94,74,41,30.09,29.99,0,0,0,0.00
2012-11-4,81.6,64.6,55.0,66.5,55.8,51.9,95,76,42,30.07,29.94,0,0,0,0.01
2012-11-5,81.4,66.3,56.6,67.7,57.8,52.5,94,77,43,29.96,29.86,0,0,0,0.00
2012-11-6,80.7,62.6,52.6,67.8,55.9,48.5,94,80,55,29.91,29.76,0,0,0,0.05
2012-11-7,70.3,56.2,45.5,52.5,46.8,40.9,93,74,42,29.96,29.81,0,0,0,0.01
2012-11-8,67.1,53.8,43.9,48.0,41.7,36.1,89,67,33,30.13,29.95,0,0,0,0.00
2012-11-9,73.5,54.2,35.5,48.3,41.3,32.6,94,66,32,30.21,30.11,0,0,0,0.00
2012-11-10,76.5,61.3,44.6,54.3,49.2,40.6,91,67,42,30.26,30.17,0,0,0,0.00
2012-11-11,80.3,64.9,49.9,62.5,55.4,46.8,95,73,45,30.25,30.16,0,0,0,0.00
2012-11-12,81.8,69.2,56.2,66.5,60.3,53.1,94,75,45,30.19,30.10,0,0,0,0.00
2012-11-13,82.0,68.1,57.8,67.0,59.7,54.9,93,76,49,30.13,30.04,0,0,0,0.00
2012-11-14,77.6,66.6,56.2,65.4,61.2,53.0,94,84,62,30.13,30.04,0,0,0,0.01
2012-11-15,66.6,63.9,59.2,62.6,60.6,56.9,92,89,84,30.10,30.02,0,0,0,0.00
2012-11-16,66.1,59.7,56.9,57.2,54.8,51.1,92,84,68,30.13,30.04,0,0,0,0.00
2012-11-17,78.8,66.2,58.1,61.7,58.4,54.8,92,77,53,30.12,30.02,0,0,0,0.00
2012-11-18,63.4,62.4,61.6,58.7,58.3,57.9,88,86,84,30.10,30.07,0,0,0,0.00
2012-11-19,60.4,54.3,45.5,54.5,50.1,42.4,93,86,79,30.13,30.03,0,0,0,0.01
2012-11-20,74.7,60.6,49.5,58.0,52.3,45.8,93,75,51,30.05,29.93,0,0,0,0.00
2012-11-21,73.3,57.6,45.8,55.4,46.4,40.3,95,70,34,30.05,29.94,0,0,0,0.00
2012-11-22,73.2,54.1,38.8,48.7,38.4,33.3,94,62,25,30.14,30.02,0,0,0,0.01
2012-11-23,72.1,48.1,32.7,44.2,35.0,29.8,92,67,26,30.17,30.04,0,0,0,0.00
2012-11-24,75.1,56.1,39.2,58.3,45.2,36.2,94,70,27,30.06,29.95,0,0,0,0.00
2012-11-25,70.6,49.9,34.3,43.5,36.0,29.9,93,66,23,30.12,30.03,0,0,0,0.01
2012-11-26,77.9,56.4,36.0,58.8,46.8,33.1,94,73,43,30.18,30.07,0,0,0,0.00
2012-11-27,78.1,63.7,52.0,63.5,55.7,49.7,94,77,52,30.14,30.03,0,0,0,0.00
2012-11-28,74.0,61.6,54.8,58.9,55.3,51.2,93,81,56,30.23,30.06,0,0,0,0.00
2012-11-29,78.5,62.2,49.8,58.5,52.5,47.3,92,73,44,30.23,30.15,0,0,0,0.01
2012-11-30,78.8,63.9,52.5,57.6,52.6,46.2,92,69,42,30.21,30.10,0,0,0,0.00
2012-12-1,78.6,63.4,48.5,60.2,54.2,44.5,93,74,48,30.20,30.13,0,0,0,0.00
2012-12-2,82.4,68.0,55.7,62.7,58.1,52.8,93,74,39,30.23,30.13,0,0,0,0.01
2012-12-3,80.1,68.1,56.6,65.1,58.4,50.6,92,73,42,30.23,30.13,0,0,0,0.00
2012-12-4,78.8,65.0,51.1,60.7,53.9,48.6,94,70,37,30.24,30.13,0,0,0,0.00
2012-12-5,79.6,66.4,54.2,62.8,56.3,49.1,92,72,44,30.15,29.98,0,0,0,0.00
2012-12-6,80.9,67.5,58.4,63.1,58.8,53.2,93,75,51,30.01,29.87,0,0,0,0.01
2012-12-7,76.1,66.0,58.1,65.2,60.4,53.2,94,83,63,29.98,29.87,0,0,0,0.01
2012-12-8,80.5,69.5,61.8,67.3,64.2,58.5,94,84,59,30.01,29.91,0,0,0,0.56
2012-12-9,78.8,68.8,59.5,69.9,64.0,55.9,94,85,67,30.04,29.96,0,0,0,0.00
2012-12-10,81.8,69.7,56.3,71.7,64.5,53.7,94,84,69,29.98,29.79,0,0,0,0.01
2012-12-11,80.1,73.0,67.1,72.3,68.8,64.7,95,87,73,29.98,29.84,0,0,0,0.07
2012-12-12,81.2,72.8,66.9,72.2,68.0,64.8,94,86,69,30.03,29.94,0,0,0,0.25
2012-12-13,69.8,61.6,55.3,66.7,58.0,51.2,93,88,79,30.15,30.00,0,0,0,0.00
2012-12-14,65.2,58.1,54.2,57.8,54.1,51.2,93,87,76,30.20,30.06,0,0,0,0.00
2012-12-15,77.6,63.7,52.3,64.5,57.6,49.5,95,82,55,30.11,30.00,0,0,0,0.01
2012-12-16,79.0,65.3,53.5,65.1,57.7,50.6,94,78,52,30.02,29.90,0,0,0,0.01
2012-12-17,81.4,67.7,54.5,67.3,60.2,51.9,94,79,52,29.94,29.82,0,0,0,0.00
2012-12-18,80.1,68.0,47.3,70.8,60.3,43.3,94,78,50,29.99,29.83,0,0,0,0.00
2012-12-19,77.2,56.8,41.9,50.2,43.9,37.9,95,68,25,30.07,29.98,0,0,0,0.01
2012-12-20,81.8,67.9,48.8,67.2,60.2,45.5,95,78,54,30.04,29.87,0,0,0,0.48
2012-12-21,69.3,52.9,34.6,66.6,39.8,29.4,91,64,33,30.17,29.90,0,0,0,0.02
2012-12-22,63.2,44.3,30.9,32.7,24.3,15.8,86,52,16,30.26,30.15,0,0,0,0.00
2012-12-23,66.4,46.7,28.7,44.9,32.5,25.2,93,64,22,30.22,30.10,0,0,0,0.00
2012-12-24,68.8,56.6,44.9,54.7,48.8,41.2,92,76,57,30.10,29.91,0,0,0,0.00
2012-12-25,74.2,62.4,48.2,60.2,54.4,45.7,94,77,57,29.98,29.83,0,0,0,0.00
2012-12-26,76.7,64.4,48.9,67.9,58.3,43.8,92,81,66,29.96,29.75,0,0,0,0.41
2012-12-27,63.7,47.7,34.4,44.0,37.7,30.9,90,71,39,30.08,29.95,0,0,0,0.00
2012-12-28,71.1,54.8,35.0,61.9,46.5,31.1,94,76,46,30.06,29.88,0,0,0,0.32
2012-12-29,76.1,65.9,50.4,70.4,61.0,46.4,94,85,60,30.10,29.81,0,0,0,0.03
2012-12-30,54.8,45.5,36.2,46.2,35.7,31.8,86,70,44,30.31,30.10,0,0,0,0.00
2012-12-31,74.0,55.3,38.5,55.7,46.7,35.0,92,75,49,30.29,30.14,0,0,0,0.00
2013-1-1,78.3,61.6,47.3,60.3,52.9,44.9,95,76,48,30.16,29.99,0,0,0,0.00